Weather reports worldwide

Advertisment
Bridlington Mrsc, United Kingdom (3292): temperature & dewpoint: 24.09.2020 16:00:00 - 30.09.2020 16:00:00 (BST)Bridlington Mrsc, United Kingdom (3292): wind speed & gusts: 24.09.2020 16:00:00 - 30.09.2020 16:00:00 (BST)Bridlington Mrsc, United Kingdom (3292): wind direction: 24.09.2020 16:00:00 - 30.09.2020 16:00:00 (BST)Bridlington Mrsc, United Kingdom (3292): reduced air pressure: 24.09.2020 16:00:00 - 30.09.2020 16:00:00 (BST)Bridlington Mrsc, United Kingdom (3292): precipitation: 24.09.2020 16:00:00 - 30.09.2020 16:00:00 (BST)
Date & Time tt [°C] td [°C] ff [km/h] ff [kn] fx [km/h] fx [kn] dd ppp [hPa] rr [mm]
30.09.2020 16:00:00 - - - - - - - - -
30.09.2020 15:00:00 13,3 10,9 34 18 - - S 1002,5 0,0
30.09.2020 14:00:00 13,3 10,8 34 18 54 29 S 1003,2 0,0
30.09.2020 13:00:00 13,4 10,5 31 17 - - S 1004,2 0,0
30.09.2020 12:00:00 13,4 10,7 34 18 - - SSE 1004,7 0,0
30.09.2020 11:00:00 13,1 10,2 34 18 - - S 1005,5 0,0
30.09.2020 10:00:00 12,5 9,2 28 15 - - S 1006,4 0,0
30.09.2020 09:00:00 11,6 8,9 31 17 - - S 1007,3 0,0
30.09.2020 08:00:00 11,4 9,2 28 15 - - SSW 1007,6 0,0
30.09.2020 07:00:00 11,0 9,5 26 14 - - S 1007,8 0,0
30.09.2020 06:00:00 11,4 10,4 24 13 - - S 1008,2 0,0
30.09.2020 05:00:00 11,8 10,9 29 16 - - S 1008,6 0,0
30.09.2020 04:00:00 12,0 11,3 28 15 - - S 1009,4 0,0
30.09.2020 03:00:00 12,1 11,1 28 15 - - S 1010,5 0,0
30.09.2020 02:00:00 12,4 10,8 29 16 - - S 1011,3 0,0
30.09.2020 01:00:00 12,1 11,0 24 13 - - SSE 1011,8 0,0
30.09.2020 00:00:00 12,0 11,2 16 9 - - SSE 1012,6 0,0
29.09.2020 23:00:00 12,2 11,2 16 9 - - S 1013,3 0,0
29.09.2020 22:00:00 12,0 11,4 15 8 - - SSE 1013,9 0,0
29.09.2020 21:00:00 11,3 10,6 11 6 - - SE 1014,2 0,0
29.09.2020 20:00:00 11,0 10,0 13 7 - - ESE 1014,3 0,0
29.09.2020 19:00:00 11,5 10,2 15 8 - - ESE 1014,5 0,0
29.09.2020 18:00:00 12,1 10,1 13 7 - - E 1014,5 0,0
29.09.2020 17:00:00 13,1 9,4 9 5 - - ENE 1014,6 0,0
29.09.2020 16:00:00 15,3 10,2 9 5 - - NE 1014,5 0,0
29.09.2020 15:00:00 14,9 9,8 13 7 - - NNE 1014,6 -
29.09.2020 14:00:00 15,8 10,1 11 6 - - N 1014,8 0,0
29.09.2020 13:00:00 15,5 9,4 13 7 - - N 1015,2 0,0
29.09.2020 12:00:00 15,1 8,6 13 7 - - N 1015,5 0,0
29.09.2020 11:00:00 14,5 9,4 15 8 - - N 1015,5 0,0
29.09.2020 10:00:00 13,6 8,9 15 8 - - N 1015,4 0,0
29.09.2020 09:00:00 12,7 8,6 9 5 - - NNW 1015,1 0,0
29.09.2020 08:00:00 11,2 8,1 9 5 - - NNW 1014,7 0,0
29.09.2020 07:00:00 11,9 9,1 13 7 - - NNW 1014,2 0,0
29.09.2020 06:00:00 12,1 9,5 11 6 - - NNW 1014,0 0,0
29.09.2020 05:00:00 12,4 10,1 11 6 - - NNW 1013,7 0,0
29.09.2020 04:00:00 12,8 11,4 15 8 - - NNW 1013,2 0,0
29.09.2020 03:00:00 12,6 11,8 18 10 - - N 1013,3 0,0
29.09.2020 02:00:00 12,5 11,8 21 11 - - N 1013,1 0,2
29.09.2020 01:00:00 13,1 12,4 13 7 - - NW 1013,0 0,2
29.09.2020 00:00:00 13,1 12,2 5 3 - - NW 1012,9 0,0
28.09.2020 23:00:00 12,2 9,9 0 0 - - N 1012,7 0,0
28.09.2020 22:00:00 11,8 9,4 5 3 - - W 1012,5 0,0
28.09.2020 21:00:00 11,5 9,2 2 1 - - WNW 1012,1 0,0
28.09.2020 20:00:00 11,7 9,0 4 2 - - W 1011,9 0,0
28.09.2020 19:00:00 12,0 9,6 4 2 - - SW 1011,5 0,0
28.09.2020 18:00:00 12,9 10,0 4 2 - - ENE 1011,0 0,0
28.09.2020 17:00:00 13,0 9,7 5 3 - - E 1010,9 0,0
28.09.2020 16:00:00 13,1 8,9 8 4 - - E 1010,9 0,0
28.09.2020 15:00:00 13,2 8,4 8 4 - - ENE 1010,9 0,0
28.09.2020 14:00:00 13,9 8,4 8 4 - - E 1011,1 0,0
28.09.2020 13:00:00 14,9 8,8 11 6 - - ESE 1011,3 0,0
28.09.2020 12:00:00 13,4 7,6 9 5 - - SSE 1011,4 0,0
28.09.2020 11:00:00 14,8 6,8 5 3 - - S 1011,6 0,0
28.09.2020 10:00:00 13,5 7,7 8 4 - - W 1011,6 0,0
28.09.2020 09:00:00 10,0 7,2 9 5 - - WNW 1011,6 0,0
28.09.2020 08:00:00 9,8 7,5 8 4 - - NW 1011,6 0,0
28.09.2020 07:00:00 10,0 7,5 13 7 - - NW 1011,5 0,0
28.09.2020 06:00:00 9,7 7,5 9 5 - - NW 1011,4 0,0
28.09.2020 05:00:00 9,1 7,0 15 8 - - NW 1011,8 0,0
28.09.2020 04:00:00 9,5 7,2 13 7 - - WNW 1012,3 0,0
28.09.2020 03:00:00 10,3 8,0 11 6 - - WNW 1012,7 0,0
28.09.2020 02:00:00 10,6 8,4 11 6 - - NW 1013,0 0,0
28.09.2020 01:00:00 11,0 8,6 13 7 - - NNW 1013,4 0,0
28.09.2020 00:00:00 11,0 8,4 15 8 - - NNW 1013,6 0,0
27.09.2020 23:00:00 11,0 8,5 15 8 - - NNW 1013,6 0,0
27.09.2020 22:00:00 11,0 8,4 13 7 - - NNW 1013,9 0,0
27.09.2020 21:00:00 11,1 8,7 11 6 - - NNW 1013,7 0,0
27.09.2020 20:00:00 11,1 8,5 16 9 - - NNW 1013,6 0,0
27.09.2020 19:00:00 10,9 8,5 18 10 - - NNW 1013,6 0,0
27.09.2020 18:00:00 11,3 8,7 26 14 46 25 NNW 1013,2 0,0
27.09.2020 17:00:00 11,8 8,9 22 12 - - NNW 1013,3 0,0
27.09.2020 16:00:00 12,5 9,5 18 10 46 25 NNW 1013,2 0,0
27.09.2020 15:00:00 12,2 9,0 24 13 46 25 NNW 1013,2 0,0
27.09.2020 14:00:00 13,1 9,5 28 15 52 28 NNW 1012,9 0,0
27.09.2020 13:00:00 13,3 9,6 26 14 48 26 NNW 1013,1 0,0
27.09.2020 12:00:00 11,7 9,2 26 14 54 29 NNW 1013,4 0,0
27.09.2020 11:00:00 11,6 9,3 29 16 54 29 N 1013,3 0,0
27.09.2020 10:00:00 11,0 9,5 29 16 54 29 NNW 1012,9 0,0
27.09.2020 09:00:00 10,4 9,0 29 16 52 28 NNW 1013,0 0,0
27.09.2020 08:00:00 10,5 8,8 29 16 54 29 N 1012,7 0,0
27.09.2020 07:00:00 10,2 8,4 31 17 55 30 NNW 1012,3 0,0
27.09.2020 06:00:00 10,0 8,5 31 17 59 32 N 1012,4 0,0
27.09.2020 05:00:00 10,2 8,3 34 18 65 35 N 1012,1 0,0
27.09.2020 04:00:00 10,6 7,4 39 21 68 37 N 1012,2 0,0
27.09.2020 03:00:00 10,6 7,1 37 20 65 35 N 1012,4 0,0
27.09.2020 02:00:00 10,4 7,8 35 19 72 39 N 1012,9 0,0
27.09.2020 01:00:00 11,0 7,1 35 19 61 33 N 1012,5 0,0
27.09.2020 00:00:00 11,2 6,6 37 20 67 36 N 1012,7 0,0
26.09.2020 23:00:00 11,3 6,0 37 20 63 34 N 1012,8 0,0
26.09.2020 22:00:00 11,2 7,8 31 17 65 35 NNW 1012,6 0,0
26.09.2020 21:00:00 11,3 7,9 34 18 67 36 N 1012,6 0,0
26.09.2020 20:00:00 11,4 8,2 34 18 63 34 NNW 1012,2 0,0
26.09.2020 19:00:00 11,2 8,2 34 18 72 39 N 1012,1 0,0
26.09.2020 18:00:00 11,1 8,4 37 20 67 36 N 1011,3 0,2
26.09.2020 17:00:00 12,2 8,1 37 20 61 33 NNW 1011,4 0,0
26.09.2020 16:00:00 12,5 7,6 31 17 68 37 N 1011,1 0,0
26.09.2020 15:00:00 12,7 9,0 35 19 59 32 N 1010,3 0,0
26.09.2020 14:00:00 12,3 9,4 34 18 59 32 N 1009,8 0,0
26.09.2020 13:00:00 11,1 9,6 35 19 67 36 NNW 1009,4 0,2
26.09.2020 12:00:00 11,0 8,1 35 19 76 41 NNW 1008,8 0,0
26.09.2020 11:00:00 11,4 6,8 37 20 72 39 NNW 1008,7 0,0
26.09.2020 10:00:00 10,6 7,6 35 19 67 36 NNW 1008,2 0,0
26.09.2020 09:00:00 10,6 6,5 39 21 67 36 NNW 1007,7 0,0
26.09.2020 08:00:00 10,3 6,4 35 19 65 35 NNW 1007,4 0,0
26.09.2020 07:00:00 8,8 6,4 31 17 57 31 NW 1007,3 0,0
26.09.2020 06:00:00 8,1 6,4 29 16 57 31 NNW 1007,1 0,2
26.09.2020 05:00:00 8,1 5,5 28 15 46 25 NW 1007,0 0,2
26.09.2020 04:00:00 8,1 5,7 26 14 70 38 NW 1007,1 0,4
26.09.2020 03:00:00 10,4 5,3 39 21 68 37 NNW 1006,7 0,0
26.09.2020 02:00:00 10,6 4,6 42 23 74 40 NNW 1006,6 0,0
26.09.2020 01:00:00 10,6 4,9 39 21 70 38 NNW 1006,4 0,0
26.09.2020 00:00:00 10,7 4,7 41 22 76 41 NNW 1006,5 0,0
25.09.2020 23:00:00 11,0 5,4 44 24 76 41 NNW 1006,0 0,0
25.09.2020 22:00:00 10,9 6,4 39 21 74 40 NNW 1005,9 0,0
25.09.2020 21:00:00 10,7 6,1 41 22 68 37 NNW 1005,4 0,0
25.09.2020 20:00:00 11,1 7,5 41 22 72 39 NNW 1004,5 0,0
25.09.2020 19:00:00 11,4 6,3 37 20 81 44 NNW 1004,2 0,0
25.09.2020 18:00:00 11,6 5,4 48 26 81 44 NNW 1003,0 0,0
25.09.2020 17:00:00 11,4 6,6 44 24 81 44 NNW 1002,1 0,2
25.09.2020 16:00:00 11,0 8,1 44 24 81 44 NNW 1001,5 0,0
25.09.2020 15:00:00 11,2 7,9 44 24 78 42 NNW 1000,5 0,4
25.09.2020 14:00:00 9,8 7,0 48 26 91 49 NNW 999,8 1,0
25.09.2020 13:00:00 11,2 7,5 37 20 81 44 NNW 999,0 0,2
25.09.2020 12:00:00 10,9 7,6 46 25 78 42 NNW 998,0 0,2
25.09.2020 11:00:00 9,9 8,3 46 25 80 43 N 997,7 1,6
25.09.2020 10:00:00 10,4 8,0 46 25 76 41 NNW 996,8 0,4
25.09.2020 09:00:00 11,0 7,5 46 25 78 42 NNW 996,5 0,0
25.09.2020 08:00:00 10,0 7,7 46 25 76 41 N 996,2 0,2
25.09.2020 07:00:00 11,5 6,5 41 22 68 37 N 995,6 0,0
25.09.2020 06:00:00 11,2 6,3 39 21 65 35 N 995,3 0,0
25.09.2020 05:00:00 10,8 7,3 37 20 68 37 N 994,9 2,4
25.09.2020 04:00:00 9,9 8,9 35 19 50 27 N 994,9 2,8
25.09.2020 03:00:00 10,8 8,7 31 17 52 28 NNE 994,6 0,4
25.09.2020 02:00:00 10,6 7,7 29 16 52 28 N 994,6 0,2
25.09.2020 01:00:00 11,1 8,4 26 14 - - NNE 994,6 0,0
25.09.2020 00:00:00 10,8 8,6 22 12 - - NNE 994,8 0,0
24.09.2020 23:00:00 10,7 9,3 24 13 - - NNE 994,7 0,2
24.09.2020 22:00:00 10,3 9,2 11 6 - - NNE 994,9 0,2
24.09.2020 21:00:00 10,1 8,9 18 10 - - NNE 994,8 1,6
24.09.2020 20:00:00 10,3 8,3 15 8 - - NNW 994,7 0,4
24.09.2020 19:00:00 10,4 8,1 16 9 - - NNE 994,1 0,0
24.09.2020 18:00:00 10,6 8,3 15 8 - - NNE 993,7 0,0
24.09.2020 17:00:00 11,4 8,6 13 7 - - NNE 993,8 0,0
24.09.2020 16:00:00 13,8 8,9 5 3 - - SSW 993,8 0,0

tt = temperature
td = dewpoint
ff = wind speed
fx = gusts
dd = wind direction
ppp = reduced air pressure
rr = precipitation

Next stations